sensor_id;sensor_type;location;lat;lon;timestamp;P1;durP1;ratioP1;P2;durP2;ratioP2
53751;SDS011;41095;53.090;6.692;2023-03-21T00:00:36;15.85;;;11.73;;
53751;SDS011;41095;53.090;6.692;2023-03-21T00:03:02;14.07;;;10.65;;
53751;SDS011;41095;53.090;6.692;2023-03-21T00:05:28;12.20;;;10.40;;
53751;SDS011;41095;53.090;6.692;2023-03-21T00:07:55;15.32;;;12.15;;
53751;SDS011;41095;53.090;6.692;2023-03-21T00:10:21;11.63;;;9.73;;
53751;SDS011;41095;53.090;6.692;2023-03-21T00:12:47;13.98;;;10.85;;
53751;SDS011;41095;53.090;6.692;2023-03-21T00:15:19;12.27;;;9.63;;
53751;SDS011;41095;53.090;6.692;2023-03-21T00:17:45;13.25;;;10.48;;
53751;SDS011;41095;53.090;6.692;2023-03-21T00:20:14;14.55;;;10.45;;
53751;SDS011;41095;53.090;6.692;2023-03-21T00:22:41;12.70;;;10.27;;
53751;SDS011;41095;53.090;6.692;2023-03-21T00:25:07;11.20;;;10.02;;
53751;SDS011;41095;53.090;6.692;2023-03-21T00:27:35;11.63;;;9.93;;
53751;SDS011;41095;53.090;6.692;2023-03-21T00:30:01;10.90;;;8.70;;
53751;SDS011;41095;53.090;6.692;2023-03-21T00:32:27;12.88;;;10.40;;
53751;SDS011;41095;53.090;6.692;2023-03-21T00:34:53;11.23;;;9.15;;
53751;SDS011;41095;53.090;6.692;2023-03-21T00:37:19;11.73;;;10.48;;
53751;SDS011;41095;53.090;6.692;2023-03-21T00:39:46;14.93;;;11.52;;
53751;SDS011;41095;53.090;6.692;2023-03-21T00:42:13;13.68;;;10.57;;
53751;SDS011;41095;53.090;6.692;2023-03-21T00:44:40;16.98;;;12.77;;
53751;SDS011;41095;53.090;6.692;2023-03-21T00:47:06;26.38;;;14.60;;
53751;SDS011;41095;53.090;6.692;2023-03-21T00:49:33;23.75;;;16.17;;
53751;SDS011;41095;53.090;6.692;2023-03-21T00:52:03;27.58;;;18.88;;
53751;SDS011;41095;53.090;6.692;2023-03-21T00:54:31;33.85;;;22.33;;
53751;SDS011;41095;53.090;6.692;2023-03-21T00:56:57;28.33;;;18.90;;
53751;SDS011;41095;53.090;6.692;2023-03-21T00:59:23;37.92;;;21.88;;
53751;SDS011;41095;53.090;6.692;2023-03-21T01:01:49;34.85;;;21.30;;
53751;SDS011;41095;53.090;6.692;2023-03-21T01:04:17;39.08;;;21.65;;
53751;SDS011;41095;53.090;6.692;2023-03-21T01:06:45;38.13;;;24.08;;
53751;SDS011;41095;53.090;6.692;2023-03-21T01:09:19;41.95;;;22.83;;
53751;SDS011;41095;53.090;6.692;2023-03-21T01:11:47;38.78;;;21.98;;
53751;SDS011;41095;53.090;6.692;2023-03-21T01:14:13;34.58;;;22.30;;
53751;SDS011;41095;53.090;6.692;2023-03-21T01:16:42;38.67;;;22.60;;
53751;SDS011;41095;53.090;6.692;2023-03-21T01:19:09;38.90;;;24.20;;
53751;SDS011;41095;53.090;6.692;2023-03-21T01:21:37;37.92;;;24.17;;
53751;SDS011;41095;53.090;6.692;2023-03-21T01:24:03;43.83;;;25.67;;
53751;SDS011;41095;53.090;6.692;2023-03-21T01:26:29;35.97;;;25.50;;
53751;SDS011;41095;53.090;6.692;2023-03-21T01:28:55;34.40;;;23.35;;
53751;SDS011;41095;53.090;6.692;2023-03-21T01:31:21;36.63;;;23.67;;
53751;SDS011;41095;53.090;6.692;2023-03-21T01:33:46;39.08;;;23.42;;
53751;SDS011;41095;53.090;6.692;2023-03-21T01:36:14;35.10;;;21.83;;
53751;SDS011;41095;53.090;6.692;2023-03-21T01:38:42;37.53;;;22.92;;
53751;SDS011;41095;53.090;6.692;2023-03-21T01:41:10;34.28;;;22.50;;
53751;SDS011;41095;53.090;6.692;2023-03-21T01:43:51;31.77;;;20.85;;
53751;SDS011;41095;53.090;6.692;2023-03-21T01:49:19;31.85;;;20.63;;
53751;SDS011;41095;53.090;6.692;2023-03-21T01:52:02;27.45;;;19.60;;
53751;SDS011;41095;53.090;6.692;2023-03-21T01:54:31;30.65;;;20.73;;
53751;SDS011;41095;53.090;6.692;2023-03-21T01:57:03;29.20;;;19.38;;
53751;SDS011;41095;53.090;6.692;2023-03-21T01:59:37;27.67;;;19.92;;
53751;SDS011;41095;53.090;6.692;2023-03-21T02:02:08;26.55;;;18.38;;
53751;SDS011;41095;53.090;6.692;2023-03-21T02:04:37;29.20;;;20.23;;
53751;SDS011;41095;53.090;6.692;2023-03-21T02:07:06;28.33;;;18.38;;
53751;SDS011;41095;53.090;6.692;2023-03-21T02:09:46;26.73;;;18.70;;
53751;SDS011;41095;53.090;6.692;2023-03-21T02:12:14;27.98;;;17.73;;
53751;SDS011;41095;53.090;6.692;2023-03-21T02:14:40;28.25;;;18.63;;
53751;SDS011;41095;53.090;6.692;2023-03-21T02:17:11;22.98;;;17.15;;
53751;SDS011;41095;53.090;6.692;2023-03-21T02:27:46;26.15;;;18.65;;
53751;SDS011;41095;53.090;6.692;2023-03-21T02:33:08;28.85;;;21.02;;
53751;SDS011;41095;53.090;6.692;2023-03-21T02:38:53;27.90;;;19.80;;
53751;SDS011;41095;53.090;6.692;2023-03-21T02:44:20;26.00;;;18.60;;
53751;SDS011;41095;53.090;6.692;2023-03-21T02:49:26;26.00;;;18.08;;
53751;SDS011;41095;53.090;6.692;2023-03-21T02:51:57;25.13;;;17.48;;
53751;SDS011;41095;53.090;6.692;2023-03-21T02:54:24;25.50;;;16.92;;
53751;SDS011;41095;53.090;6.692;2023-03-21T02:56:51;25.80;;;18.77;;
53751;SDS011;41095;53.090;6.692;2023-03-21T02:59:21;24.40;;;16.92;;
53751;SDS011;41095;53.090;6.692;2023-03-21T03:01:50;22.13;;;14.88;;
53751;SDS011;41095;53.090;6.692;2023-03-21T03:04:20;26.23;;;17.67;;
53751;SDS011;41095;53.090;6.692;2023-03-21T03:09:25;26.65;;;17.75;;
53751;SDS011;41095;53.090;6.692;2023-03-21T03:12:21;24.67;;;16.92;;
53751;SDS011;41095;53.090;6.692;2023-03-21T03:15:42;22.52;;;14.10;;
53751;SDS011;41095;53.090;6.692;2023-03-21T03:18:18;20.17;;;14.07;;
53751;SDS011;41095;53.090;6.692;2023-03-21T03:26:19;20.77;;;13.52;;
53751;SDS011;41095;53.090;6.692;2023-03-21T03:28:52;18.90;;;12.60;;
53751;SDS011;41095;53.090;6.692;2023-03-21T03:31:24;19.27;;;12.70;;
53751;SDS011;41095;53.090;6.692;2023-03-21T03:33:58;17.98;;;11.63;;
53751;SDS011;41095;53.090;6.692;2023-03-21T03:36:29;17.45;;;12.25;;
53751;SDS011;41095;53.090;6.692;2023-03-21T03:39:00;22.45;;;14.02;;
53751;SDS011;41095;53.090;6.692;2023-03-21T03:44:02;16.05;;;12.82;;
53751;SDS011;41095;53.090;6.692;2023-03-21T03:49:08;15.43;;;11.05;;
53751;SDS011;41095;53.090;6.692;2023-03-21T03:51:41;15.80;;;10.65;;
53751;SDS011;41095;53.090;6.692;2023-03-21T03:54:21;18.38;;;11.60;;
53751;SDS011;41095;53.090;6.692;2023-03-21T03:56:54;13.23;;;10.10;;
53751;SDS011;41095;53.090;6.692;2023-03-21T03:59:20;14.73;;;10.57;;
53751;SDS011;41095;53.090;6.692;2023-03-21T04:01:46;15.85;;;11.73;;
53751;SDS011;41095;53.090;6.692;2023-03-21T04:04:13;14.30;;;11.52;;
53751;SDS011;41095;53.090;6.692;2023-03-21T04:06:41;17.27;;;11.38;;
53751;SDS011;41095;53.090;6.692;2023-03-21T04:09:16;14.50;;;11.15;;
53751;SDS011;41095;53.090;6.692;2023-03-21T04:11:42;18.10;;;12.35;;
53751;SDS011;41095;53.090;6.692;2023-03-21T04:14:07;14.68;;;10.73;;
53751;SDS011;41095;53.090;6.692;2023-03-21T04:16:33;16.95;;;12.15;;
53751;SDS011;41095;53.090;6.692;2023-03-21T04:18:59;17.45;;;11.77;;
53751;SDS011;41095;53.090;6.692;2023-03-21T04:21:25;18.05;;;13.05;;
53751;SDS011;41095;53.090;6.692;2023-03-21T04:23:51;14.50;;;11.38;;
53751;SDS011;41095;53.090;6.692;2023-03-21T04:26:19;18.60;;;13.75;;
53751;SDS011;41095;53.090;6.692;2023-03-21T04:28:46;15.73;;;10.60;;
53751;SDS011;41095;53.090;6.692;2023-03-21T04:31:12;15.73;;;12.07;;
53751;SDS011;41095;53.090;6.692;2023-03-21T04:33:38;15.98;;;11.80;;
53751;SDS011;41095;53.090;6.692;2023-03-21T04:36:05;16.23;;;13.43;;
53751;SDS011;41095;53.090;6.692;2023-03-21T04:38:33;16.45;;;11.52;;
53751;SDS011;41095;53.090;6.692;2023-03-21T04:41:00;18.20;;;12.48;;
53751;SDS011;41095;53.090;6.692;2023-03-21T04:43:26;17.25;;;13.10;;
53751;SDS011;41095;53.090;6.692;2023-03-21T04:45:52;17.65;;;12.65;;
53751;SDS011;41095;53.090;6.692;2023-03-21T04:48:18;15.02;;;11.65;;
53751;SDS011;41095;53.090;6.692;2023-03-21T04:50:48;15.80;;;11.40;;
53751;SDS011;41095;53.090;6.692;2023-03-21T04:53:15;14.18;;;11.05;;
53751;SDS011;41095;53.090;6.692;2023-03-21T04:55:41;17.10;;;11.73;;
53751;SDS011;41095;53.090;6.692;2023-03-21T04:58:07;16.73;;;11.88;;
53751;SDS011;41095;53.090;6.692;2023-03-21T05:00:33;14.70;;;10.88;;
53751;SDS011;41095;53.090;6.692;2023-03-21T05:03:05;13.45;;;10.27;;
53751;SDS011;41095;53.090;6.692;2023-03-21T05:05:37;16.63;;;12.00;;
53751;SDS011;41095;53.090;6.692;2023-03-21T05:08:04;15.60;;;11.27;;
53751;SDS011;41095;53.090;6.692;2023-03-21T05:10:30;16.35;;;12.30;;
53751;SDS011;41095;53.090;6.692;2023-03-21T05:12:56;13.63;;;10.48;;
53751;SDS011;41095;53.090;6.692;2023-03-21T05:15:22;13.15;;;10.20;;
53751;SDS011;41095;53.090;6.692;2023-03-21T05:17:47;12.95;;;9.43;;
53751;SDS011;41095;53.090;6.692;2023-03-21T05:20:13;13.75;;;10.85;;
53751;SDS011;41095;53.090;6.692;2023-03-21T05:22:41;12.50;;;10.05;;
53751;SDS011;41095;53.090;6.692;2023-03-21T05:25:10;17.27;;;11.88;;
53751;SDS011;41095;53.090;6.692;2023-03-21T05:27:37;16.42;;;11.30;;
53751;SDS011;41095;53.090;6.692;2023-03-21T05:30:16;13.27;;;10.07;;
53751;SDS011;41095;53.090;6.692;2023-03-21T05:32:42;15.70;;;11.48;;
53751;SDS011;41095;53.090;6.692;2023-03-21T05:35:08;15.35;;;11.40;;
53751;SDS011;41095;53.090;6.692;2023-03-21T05:37:34;15.10;;;11.13;;
53751;SDS011;41095;53.090;6.692;2023-03-21T05:40:00;14.90;;;10.45;;
53751;SDS011;41095;53.090;6.692;2023-03-21T05:42:26;14.18;;;10.88;;
53751;SDS011;41095;53.090;6.692;2023-03-21T05:44:52;16.40;;;12.20;;
53751;SDS011;41095;53.090;6.692;2023-03-21T05:47:17;16.13;;;11.60;;
53751;SDS011;41095;53.090;6.692;2023-03-21T05:49:44;16.85;;;12.45;;
53751;SDS011;41095;53.090;6.692;2023-03-21T05:52:10;17.60;;;12.80;;
53751;SDS011;41095;53.090;6.692;2023-03-21T05:54:36;14.13;;;11.18;;
53751;SDS011;41095;53.090;6.692;2023-03-21T05:57:02;17.75;;;13.57;;
53751;SDS011;41095;53.090;6.692;2023-03-21T05:59:28;20.20;;;13.70;;
53751;SDS011;41095;53.090;6.692;2023-03-21T06:01:54;19.88;;;14.18;;
53751;SDS011;41095;53.090;6.692;2023-03-21T06:04:20;23.10;;;15.63;;
53751;SDS011;41095;53.090;6.692;2023-03-21T06:06:46;19.02;;;13.70;;
53751;SDS011;41095;53.090;6.692;2023-03-21T06:09:12;18.20;;;13.98;;
53751;SDS011;41095;53.090;6.692;2023-03-21T06:11:38;18.10;;;13.27;;
53751;SDS011;41095;53.090;6.692;2023-03-21T06:14:08;19.50;;;15.38;;
53751;SDS011;41095;53.090;6.692;2023-03-21T06:16:33;21.65;;;15.60;;
53751;SDS011;41095;53.090;6.692;2023-03-21T06:18:59;22.00;;;16.40;;
53751;SDS011;41095;53.090;6.692;2023-03-21T06:21:25;18.25;;;14.02;;
53751;SDS011;41095;53.090;6.692;2023-03-21T06:23:50;19.42;;;14.38;;
53751;SDS011;41095;53.090;6.692;2023-03-21T06:26:17;18.83;;;13.90;;
53751;SDS011;41095;53.090;6.692;2023-03-21T06:28:50;17.50;;;13.75;;
53751;SDS011;41095;53.090;6.692;2023-03-21T06:31:17;19.17;;;14.45;;
53751;SDS011;41095;53.090;6.692;2023-03-21T06:33:47;18.45;;;15.10;;
53751;SDS011;41095;53.090;6.692;2023-03-21T06:36:14;19.02;;;15.75;;
53751;SDS011;41095;53.090;6.692;2023-03-21T06:38:40;18.00;;;14.65;;
53751;SDS011;41095;53.090;6.692;2023-03-21T06:41:06;18.17;;;14.60;;
53751;SDS011;41095;53.090;6.692;2023-03-21T06:43:32;19.95;;;15.52;;
53751;SDS011;41095;53.090;6.692;2023-03-21T06:45:59;19.48;;;14.90;;
53751;SDS011;41095;53.090;6.692;2023-03-21T06:48:25;19.80;;;14.95;;
53751;SDS011;41095;53.090;6.692;2023-03-21T06:50:52;20.05;;;14.98;;
53751;SDS011;41095;53.090;6.692;2023-03-21T06:53:21;18.10;;;16.17;;
53751;SDS011;41095;53.090;6.692;2023-03-21T06:55:51;18.92;;;15.18;;
53751;SDS011;41095;53.090;6.692;2023-03-21T06:58:17;19.75;;;15.63;;
53751;SDS011;41095;53.090;6.692;2023-03-21T07:00:44;20.45;;;16.08;;
53751;SDS011;41095;53.090;6.692;2023-03-21T07:03:10;19.23;;;14.40;;
53751;SDS011;41095;53.090;6.692;2023-03-21T07:05:36;17.25;;;13.90;;
53751;SDS011;41095;53.090;6.692;2023-03-21T07:08:03;17.88;;;13.50;;
53751;SDS011;41095;53.090;6.692;2023-03-21T07:10:30;18.73;;;14.40;;
53751;SDS011;41095;53.090;6.692;2023-03-21T07:12:57;16.48;;;13.43;;
53751;SDS011;41095;53.090;6.692;2023-03-21T07:15:23;16.40;;;14.20;;
53751;SDS011;41095;53.090;6.692;2023-03-21T07:17:50;15.35;;;12.77;;
53751;SDS011;41095;53.090;6.692;2023-03-21T07:20:16;16.27;;;13.25;;
53751;SDS011;41095;53.090;6.692;2023-03-21T07:22:42;13.25;;;11.50;;
53751;SDS011;41095;53.090;6.692;2023-03-21T07:25:08;13.40;;;11.93;;
53751;SDS011;41095;53.090;6.692;2023-03-21T07:27:34;14.27;;;10.85;;
53751;SDS011;41095;53.090;6.692;2023-03-21T07:30:01;17.30;;;13.52;;
53751;SDS011;41095;53.090;6.692;2023-03-21T07:32:33;13.48;;;12.05;;
53751;SDS011;41095;53.090;6.692;2023-03-21T07:35:02;13.45;;;11.02;;
53751;SDS011;41095;53.090;6.692;2023-03-21T07:37:28;13.05;;;11.07;;
53751;SDS011;41095;53.090;6.692;2023-03-21T07:39:54;13.57;;;11.20;;
53751;SDS011;41095;53.090;6.692;2023-03-21T07:42:19;14.25;;;10.52;;
53751;SDS011;41095;53.090;6.692;2023-03-21T07:44:45;12.27;;;10.00;;
53751;SDS011;41095;53.090;6.692;2023-03-21T07:47:11;15.70;;;10.57;;
53751;SDS011;41095;53.090;6.692;2023-03-21T07:49:36;11.57;;;10.15;;
53751;SDS011;41095;53.090;6.692;2023-03-21T07:52:03;11.75;;;9.55;;
53751;SDS011;41095;53.090;6.692;2023-03-21T07:54:29;11.40;;;9.20;;
53751;SDS011;41095;53.090;6.692;2023-03-21T07:56:55;10.30;;;8.77;;
53751;SDS011;41095;53.090;6.692;2023-03-21T07:59:21;9.50;;;8.05;;
53751;SDS011;41095;53.090;6.692;2023-03-21T08:01:47;7.95;;;6.57;;
53751;SDS011;41095;53.090;6.692;2023-03-21T08:04:13;7.65;;;6.18;;
53751;SDS011;41095;53.090;6.692;2023-03-21T08:06:38;7.65;;;6.05;;
53751;SDS011;41095;53.090;6.692;2023-03-21T08:09:05;7.78;;;6.00;;
53751;SDS011;41095;53.090;6.692;2023-03-21T08:11:31;8.73;;;6.28;;
53751;SDS011;41095;53.090;6.692;2023-03-21T08:13:57;6.75;;;5.38;;
53751;SDS011;41095;53.090;6.692;2023-03-21T08:16:24;6.90;;;5.82;;
53751;SDS011;41095;53.090;6.692;2023-03-21T08:18:50;7.53;;;5.93;;
53751;SDS011;41095;53.090;6.692;2023-03-21T08:21:15;7.40;;;5.90;;
53751;SDS011;41095;53.090;6.692;2023-03-21T08:23:42;7.40;;;6.57;;
53751;SDS011;41095;53.090;6.692;2023-03-21T08:26:07;8.05;;;6.65;;
53751;SDS011;41095;53.090;6.692;2023-03-21T08:28:34;9.25;;;7.30;;
53751;SDS011;41095;53.090;6.692;2023-03-21T08:31:05;8.77;;;7.63;;
53751;SDS011;41095;53.090;6.692;2023-03-21T08:33:32;9.77;;;7.78;;
53751;SDS011;41095;53.090;6.692;2023-03-21T08:36:01;8.80;;;7.93;;
53751;SDS011;41095;53.090;6.692;2023-03-21T08:38:27;8.35;;;7.50;;
53751;SDS011;41095;53.090;6.692;2023-03-21T08:40:56;7.80;;;7.05;;
53751;SDS011;41095;53.090;6.692;2023-03-21T08:43:24;10.15;;;8.10;;
53751;SDS011;41095;53.090;6.692;2023-03-21T08:45:50;10.13;;;8.68;;
53751;SDS011;41095;53.090;6.692;2023-03-21T08:48:16;10.10;;;7.68;;
53751;SDS011;41095;53.090;6.692;2023-03-21T08:50:42;9.60;;;8.38;;
53751;SDS011;41095;53.090;6.692;2023-03-21T08:53:08;9.77;;;7.53;;
53751;SDS011;41095;53.090;6.692;2023-03-21T08:55:33;9.70;;;8.45;;
53751;SDS011;41095;53.090;6.692;2023-03-21T08:57:59;9.30;;;7.60;;
53751;SDS011;41095;53.090;6.692;2023-03-21T09:00:25;8.95;;;7.80;;
53751;SDS011;41095;53.090;6.692;2023-03-21T09:02:52;8.60;;;7.47;;
53751;SDS011;41095;53.090;6.692;2023-03-21T09:05:18;10.98;;;8.73;;
53751;SDS011;41095;53.090;6.692;2023-03-21T09:07:45;10.98;;;8.57;;
53751;SDS011;41095;53.090;6.692;2023-03-21T09:10:13;10.45;;;8.60;;
53751;SDS011;41095;53.090;6.692;2023-03-21T09:12:40;9.63;;;8.10;;
53751;SDS011;41095;53.090;6.692;2023-03-21T09:15:07;12.70;;;8.45;;
53751;SDS011;41095;53.090;6.692;2023-03-21T09:17:34;12.77;;;9.18;;
53751;SDS011;41095;53.090;6.692;2023-03-21T09:20:00;13.10;;;9.70;;
53751;SDS011;41095;53.090;6.692;2023-03-21T09:22:32;11.68;;;10.13;;
53751;SDS011;41095;53.090;6.692;2023-03-21T09:24:58;13.23;;;10.18;;
53751;SDS011;41095;53.090;6.692;2023-03-21T09:27:31;12.02;;;10.63;;
53751;SDS011;41095;53.090;6.692;2023-03-21T09:29:57;14.32;;;10.73;;
53751;SDS011;41095;53.090;6.692;2023-03-21T09:32:23;15.45;;;9.13;;
53751;SDS011;41095;53.090;6.692;2023-03-21T09:34:49;11.95;;;9.57;;
53751;SDS011;41095;53.090;6.692;2023-03-21T09:37:17;12.85;;;10.05;;
53751;SDS011;41095;53.090;6.692;2023-03-21T09:39:42;11.38;;;9.63;;
53751;SDS011;41095;53.090;6.692;2023-03-21T09:47:46;14.75;;;10.82;;
53751;SDS011;41095;53.090;6.692;2023-03-21T09:50:33;18.65;;;12.85;;
53751;SDS011;41095;53.090;6.692;2023-03-21T09:53:07;16.92;;;13.07;;
53751;SDS011;41095;53.090;6.692;2023-03-21T09:55:40;13.38;;;10.98;;
53751;SDS011;41095;53.090;6.692;2023-03-21T09:58:26;18.17;;;12.40;;
53751;SDS011;41095;53.090;6.692;2023-03-21T10:03:46;16.63;;;12.23;;
53751;SDS011;41095;53.090;6.692;2023-03-21T10:06:14;22.13;;;14.85;;
53751;SDS011;41095;53.090;6.692;2023-03-21T10:08:42;16.88;;;14.65;;
53751;SDS011;41095;53.090;6.692;2023-03-21T10:11:27;23.60;;;14.52;;
53751;SDS011;41095;53.090;6.692;2023-03-21T10:14:03;22.42;;;14.75;;
53751;SDS011;41095;53.090;6.692;2023-03-21T10:16:51;20.92;;;15.63;;
53751;SDS011;41095;53.090;6.692;2023-03-21T10:19:22;22.00;;;15.02;;
53751;SDS011;41095;53.090;6.692;2023-03-21T10:21:49;18.35;;;15.80;;
53751;SDS011;41095;53.090;6.692;2023-03-21T10:24:20;21.17;;;15.77;;
53751;SDS011;41095;53.090;6.692;2023-03-21T10:26:49;24.77;;;17.30;;
53751;SDS011;41095;53.090;6.692;2023-03-21T10:29:15;24.42;;;18.02;;
53751;SDS011;41095;53.090;6.692;2023-03-21T10:31:43;21.42;;;17.58;;
53751;SDS011;41095;53.090;6.692;2023-03-21T10:34:53;25.05;;;17.38;;
53751;SDS011;41095;53.090;6.692;2023-03-21T10:37:04;21.90;;;16.73;;
53751;SDS011;41095;53.090;6.692;2023-03-21T10:39:41;22.77;;;15.32;;
53751;SDS011;41095;53.090;6.692;2023-03-21T10:42:16;20.23;;;16.30;;
53751;SDS011;41095;53.090;6.692;2023-03-21T10:44:49;22.20;;;16.88;;
53751;SDS011;41095;53.090;6.692;2023-03-21T10:47:20;20.90;;;14.38;;
53751;SDS011;41095;53.090;6.692;2023-03-21T10:49:48;19.88;;;14.23;;
53751;SDS011;41095;53.090;6.692;2023-03-21T10:52:16;19.92;;;14.88;;
53751;SDS011;41095;53.090;6.692;2023-03-21T10:54:44;22.15;;;15.25;;
53751;SDS011;41095;53.090;6.692;2023-03-21T10:57:11;18.05;;;15.02;;
53751;SDS011;41095;53.090;6.692;2023-03-21T10:59:48;18.38;;;11.82;;
53751;SDS011;41095;53.090;6.692;2023-03-21T11:02:34;15.88;;;11.52;;
53751;SDS011;41095;53.090;6.692;2023-03-21T11:08:34;24.85;;;13.27;;
53751;SDS011;41095;53.090;6.692;2023-03-21T11:10:53;20.63;;;13.10;;
53751;SDS011;41095;53.090;6.692;2023-03-21T11:13:42;21.25;;;13.50;;
53751;SDS011;41095;53.090;6.692;2023-03-21T11:16:09;16.73;;;12.43;;
53751;SDS011;41095;53.090;6.692;2023-03-21T11:18:43;18.73;;;12.68;;
53751;SDS011;41095;53.090;6.692;2023-03-21T11:21:13;18.30;;;13.02;;
53751;SDS011;41095;53.090;6.692;2023-03-21T11:23:41;15.60;;;11.68;;
53751;SDS011;41095;53.090;6.692;2023-03-21T11:26:18;15.55;;;11.38;;
53751;SDS011;41095;53.090;6.692;2023-03-21T11:28:54;16.63;;;11.88;;
53751;SDS011;41095;53.090;6.692;2023-03-21T11:31:21;18.73;;;11.88;;
53751;SDS011;41095;53.090;6.692;2023-03-21T11:34:01;13.27;;;10.70;;
53751;SDS011;41095;53.090;6.692;2023-03-21T11:36:37;22.58;;;12.32;;
53751;SDS011;41095;53.090;6.692;2023-03-21T11:41:50;15.88;;;11.50;;
53751;SDS011;41095;53.090;6.692;2023-03-21T11:44:30;15.73;;;10.90;;
53751;SDS011;41095;53.090;6.692;2023-03-21T11:47:07;15.45;;;10.10;;
53751;SDS011;41095;53.090;6.692;2023-03-21T11:49:34;12.25;;;10.00;;
53751;SDS011;41095;53.090;6.692;2023-03-21T11:52:13;12.80;;;10.43;;
53751;SDS011;41095;53.090;6.692;2023-03-21T11:55:06;13.93;;;9.48;;
53751;SDS011;41095;53.090;6.692;2023-03-21T11:58:02;12.63;;;9.52;;
53751;SDS011;41095;53.090;6.692;2023-03-21T12:06:11;12.70;;;9.50;;
53751;SDS011;41095;53.090;6.692;2023-03-21T12:08:50;13.02;;;8.55;;
53751;SDS011;41095;53.090;6.692;2023-03-21T12:11:27;12.48;;;8.82;;
53751;SDS011;41095;53.090;6.692;2023-03-21T12:31:00;12.98;;;8.25;;
53751;SDS011;41095;53.090;6.692;2023-03-21T12:39:28;10.65;;;8.43;;
53751;SDS011;41095;53.090;6.692;2023-03-21T12:44:25;13.73;;;8.68;;
53751;SDS011;41095;53.090;6.692;2023-03-21T12:49:28;11.98;;;8.20;;
53751;SDS011;41095;53.090;6.692;2023-03-21T12:52:20;16.17;;;8.35;;
53751;SDS011;41095;53.090;6.692;2023-03-21T12:57:34;14.63;;;9.00;;
53751;SDS011;41095;53.090;6.692;2023-03-21T13:00:15;10.30;;;7.68;;
53751;SDS011;41095;53.090;6.692;2023-03-21T13:03:34;14.48;;;8.98;;
53751;SDS011;41095;53.090;6.692;2023-03-21T13:05:38;13.73;;;8.82;;
53751;SDS011;41095;53.090;6.692;2023-03-21T13:08:10;14.20;;;9.02;;
53751;SDS011;41095;53.090;6.692;2023-03-21T13:10:56;11.65;;;7.28;;
53751;SDS011;41095;53.090;6.692;2023-03-21T13:13:25;12.68;;;8.10;;
53751;SDS011;41095;53.090;6.692;2023-03-21T13:16:07;8.25;;;7.40;;
53751;SDS011;41095;53.090;6.692;2023-03-21T13:24:45;9.85;;;7.35;;
53751;SDS011;41095;53.090;6.692;2023-03-21T13:29:59;10.27;;;7.75;;
53751;SDS011;41095;53.090;6.692;2023-03-21T13:37:38;8.52;;;6.57;;
53751;SDS011;41095;53.090;6.692;2023-03-21T13:40:07;9.85;;;7.25;;
53751;SDS011;41095;53.090;6.692;2023-03-21T13:42:49;11.73;;;7.00;;
53751;SDS011;41095;53.090;6.692;2023-03-21T13:45:22;10.75;;;7.88;;
53751;SDS011;41095;53.090;6.692;2023-03-21T13:47:56;11.70;;;7.95;;
53751;SDS011;41095;53.090;6.692;2023-03-21T13:50:28;14.88;;;8.00;;
53751;SDS011;41095;53.090;6.692;2023-03-21T13:55:40;13.57;;;7.80;;
53751;SDS011;41095;53.090;6.692;2023-03-21T14:03:43;16.15;;;8.05;;
53751;SDS011;41095;53.090;6.692;2023-03-21T14:06:11;13.95;;;8.43;;
53751;SDS011;41095;53.090;6.692;2023-03-21T14:08:39;11.70;;;7.43;;
53751;SDS011;41095;53.090;6.692;2023-03-21T14:11:07;12.05;;;7.57;;
53751;SDS011;41095;53.090;6.692;2023-03-21T14:13:40;10.98;;;7.47;;
53751;SDS011;41095;53.090;6.692;2023-03-21T14:16:09;9.35;;;7.45;;
53751;SDS011;41095;53.090;6.692;2023-03-21T14:18:42;8.68;;;7.00;;
53751;SDS011;41095;53.090;6.692;2023-03-21T14:21:17;11.68;;;9.02;;
53751;SDS011;41095;53.090;6.692;2023-03-21T14:23:45;11.35;;;6.55;;
53751;SDS011;41095;53.090;6.692;2023-03-21T14:26:12;10.98;;;6.60;;
53751;SDS011;41095;53.090;6.692;2023-03-21T14:28:45;11.18;;;6.78;;
53751;SDS011;41095;53.090;6.692;2023-03-21T14:31:14;11.68;;;6.93;;
53751;SDS011;41095;53.090;6.692;2023-03-21T14:33:44;10.50;;;7.05;;
53751;SDS011;41095;53.090;6.692;2023-03-21T14:36:16;12.07;;;7.68;;
53751;SDS011;41095;53.090;6.692;2023-03-21T14:39:01;11.82;;;7.25;;
53751;SDS011;41095;53.090;6.692;2023-03-21T14:41:30;8.60;;;7.07;;
53751;SDS011;41095;53.090;6.692;2023-03-21T14:46:49;13.18;;;7.65;;
53751;SDS011;41095;53.090;6.692;2023-03-21T14:49:29;9.00;;;6.45;;
53751;SDS011;41095;53.090;6.692;2023-03-21T14:51:57;12.35;;;6.97;;
53751;SDS011;41095;53.090;6.692;2023-03-21T14:54:26;10.15;;;6.70;;
53751;SDS011;41095;53.090;6.692;2023-03-21T14:56:56;9.10;;;6.50;;
53751;SDS011;41095;53.090;6.692;2023-03-21T14:59:31;14.98;;;7.60;;
53751;SDS011;41095;53.090;6.692;2023-03-21T15:02:00;11.38;;;6.95;;
53751;SDS011;41095;53.090;6.692;2023-03-21T15:04:29;10.00;;;6.85;;
53751;SDS011;41095;53.090;6.692;2023-03-21T15:07:00;9.85;;;6.70;;
53751;SDS011;41095;53.090;6.692;2023-03-21T15:09:30;10.73;;;6.93;;
53751;SDS011;41095;53.090;6.692;2023-03-21T15:11:59;8.82;;;6.47;;
53751;SDS011;41095;53.090;6.692;2023-03-21T15:14:30;9.88;;;7.07;;
53751;SDS011;41095;53.090;6.692;2023-03-21T15:16:58;9.13;;;6.70;;
53751;SDS011;41095;53.090;6.692;2023-03-21T15:19:32;8.25;;;6.32;;
53751;SDS011;41095;53.090;6.692;2023-03-21T15:22:19;9.73;;;7.22;;
53751;SDS011;41095;53.090;6.692;2023-03-21T15:24:57;9.75;;;6.63;;
53751;SDS011;41095;53.090;6.692;2023-03-21T15:27:27;7.15;;;6.45;;
53751;SDS011;41095;53.090;6.692;2023-03-21T15:29:56;12.25;;;7.07;;
53751;SDS011;41095;53.090;6.692;2023-03-21T15:32:24;9.13;;;6.85;;
53751;SDS011;41095;53.090;6.692;2023-03-21T15:35:03;9.32;;;7.90;;
53751;SDS011;41095;53.090;6.692;2023-03-21T15:37:33;11.40;;;6.50;;
53751;SDS011;41095;53.090;6.692;2023-03-21T15:40:34;10.07;;;6.45;;
53751;SDS011;41095;53.090;6.692;2023-03-21T15:43:14;9.55;;;6.57;;
53751;SDS011;41095;53.090;6.692;2023-03-21T15:45:51;11.43;;;7.15;;
53751;SDS011;41095;53.090;6.692;2023-03-21T15:48:27;9.88;;;7.28;;
53751;SDS011;41095;53.090;6.692;2023-03-21T15:50:58;11.25;;;6.78;;
53751;SDS011;41095;53.090;6.692;2023-03-21T15:53:27;7.68;;;6.68;;
53751;SDS011;41095;53.090;6.692;2023-03-21T15:56:00;13.80;;;8.43;;
53751;SDS011;41095;53.090;6.692;2023-03-21T15:58:33;9.50;;;6.97;;
53751;SDS011;41095;53.090;6.692;2023-03-21T16:01:07;9.57;;;8.68;;
53751;SDS011;41095;53.090;6.692;2023-03-21T16:03:43;10.43;;;7.40;;
53751;SDS011;41095;53.090;6.692;2023-03-21T16:08:44;12.32;;;7.60;;
53751;SDS011;41095;53.090;6.692;2023-03-21T16:13:48;10.70;;;8.13;;
53751;SDS011;41095;53.090;6.692;2023-03-21T16:16:19;10.38;;;8.13;;
53751;SDS011;41095;53.090;6.692;2023-03-21T16:18:50;9.00;;;7.88;;
53751;SDS011;41095;53.090;6.692;2023-03-21T16:21:17;11.32;;;7.90;;
53751;SDS011;41095;53.090;6.692;2023-03-21T16:23:45;9.98;;;7.35;;
53751;SDS011;41095;53.090;6.692;2023-03-21T16:26:12;8.88;;;7.50;;
53751;SDS011;41095;53.090;6.692;2023-03-21T16:28:41;9.27;;;7.47;;
53751;SDS011;41095;53.090;6.692;2023-03-21T16:31:14;9.68;;;8.38;;
53751;SDS011;41095;53.090;6.692;2023-03-21T16:33:44;9.52;;;7.50;;
53751;SDS011;41095;53.090;6.692;2023-03-21T16:38:44;14.90;;;7.90;;
53751;SDS011;41095;53.090;6.692;2023-03-21T16:41:14;11.25;;;8.00;;
53751;SDS011;41095;53.090;6.692;2023-03-21T16:43:41;10.43;;;7.68;;